Time;durP1;ratioP1;P1;durP2;ratioP2;P2;SDS_P1;SDS_P2;PMS_P1;PMS_P2;Temp;Humidity;BMP_temperature;BMP_pressure;BME280_temperature;BME280_humidity;BME280_pressure;Samples;Min_cycle;Max_cycle;Signal;HPM_P1;HPM_P2
2023/05/29 00:00:06;;;;;;;6.88;3.38;;;17.20;99.90;;;;;;5076620;28;20013;-76
2023/05/29 00:02:35;;;;;;;6.78;3.13;;;17.10;99.90;;;;;;5058453;28;20032;-76
2023/05/29 00:05:11;;;;;;;7.43;3.53;;;17.10;99.90;;;;;;5076495;28;20021;-76
2023/05/29 00:07:43;;;;;;;13.25;4.15;;;17.00;99.90;;;;;;5057559;28;20180;-77
2023/05/29 00:10:10;;;;;;;8.05;3.20;;;17.10;99.90;;;;;;5057886;28;20033;-76
2023/05/29 00:12:40;;;;;;;8.90;3.65;;;16.90;99.90;;;;;;5057300;28;20013;-76
2023/05/29 00:15:06;;;;;;;9.98;3.72;;;16.80;99.90;;;;;;5057076;28;20029;-76
2023/05/29 00:17:34;;;;;;;5.57;2.77;;;16.80;99.90;;;;;;5056338;28;20059;-76
2023/05/29 00:20:09;;;;;;;5.55;3.03;;;16.70;99.90;;;;;;5056955;28;20041;-76
2023/05/29 00:22:40;;;;;;;6.13;3.40;;;16.80;99.90;;;;;;5057299;28;20029;-78
2023/05/29 00:25:09;;;;;;;9.63;3.57;;;16.70;99.90;;;;;;5056380;28;20029;-77
2023/05/29 00:27:38;;;;;;;7.90;3.03;;;16.60;99.90;;;;;;5071997;28;20020;-78
2023/05/29 00:30:08;;;;;;;5.23;2.97;;;16.50;99.90;;;;;;5055136;28;20080;-77
2023/05/29 00:32:35;;;;;;;8.27;3.60;;;16.50;99.90;;;;;;5072458;28;20017;-77
2023/05/29 00:35:21;;;;;;;9.17;3.27;;;16.50;99.90;;;;;;5054786;28;20036;-78
2023/05/29 00:37:46;;;;;;;8.43;3.47;;;16.30;99.90;;;;;;5055085;28;20060;-77
2023/05/29 00:40:17;;;;;;;8.33;3.83;;;16.30;99.90;;;;;;5055129;28;20025;-78
2023/05/29 00:43:00;;;;;;;10.90;3.43;;;16.30;99.90;;;;;;5054732;28;20048;-78
2023/05/29 00:45:28;;;;;;;5.47;2.50;;;16.30;99.90;;;;;;5054854;28;20055;-77
2023/05/29 00:48:14;;;;;;;9.33;3.10;;;16.30;99.90;;;;;;5054434;28;20035;-77
2023/05/29 00:50:40;;;;;;;10.47;3.40;;;16.10;99.90;;;;;;5052677;28;20033;-78
2023/05/29 00:53:07;;;;;;;9.63;3.30;;;16.10;99.90;;;;;;5054791;28;20221;-76
2023/05/29 00:55:34;;;;;;;7.93;3.10;;;16.10;99.90;;;;;;5054407;28;20101;-77
2023/05/29 00:58:00;;;;;;;9.90;3.50;;;15.90;99.90;;;;;;5054972;28;20044;-78
2023/05/29 01:00:26;;;;;;;7.77;3.13;;;15.90;99.90;;;;;;5071801;28;20021;-78
2023/05/29 01:02:52;;;;;;;6.60;2.87;;;16.00;99.90;;;;;;5054111;28;20054;-78
2023/05/29 01:05:19;;;;;;;9.43;3.57;;;16.20;99.90;;;;;;5054457;28;20072;-78
2023/05/29 01:07:54;;;;;;;5.20;3.10;;;15.80;99.90;;;;;;5054498;28;20029;-77
2023/05/29 01:10:22;;;;;;;11.63;3.40;;;15.70;99.90;;;;;;5055031;28;20044;-77
2023/05/29 01:12:56;;;;;;;9.33;3.30;;;15.70;99.90;;;;;;5055201;28;20041;-78
2023/05/29 01:16:00;;;;;;;9.33;4.00;;;15.50;99.90;;;;;;5054545;28;20048;-78
2023/05/29 01:18:47;;;;;;;6.93;3.30;;;15.40;99.90;;;;;;5054787;28;20045;-77
2023/05/29 01:21:19;;;;;;;7.70;3.37;;;15.40;99.90;;;;;;5055327;28;20009;-78
2023/05/29 01:24:16;;;;;;;6.93;2.80;;;15.40;99.90;;;;;;5073623;28;20080;-78
2023/05/29 01:26:55;;;;;;;6.23;2.77;;;15.20;99.90;;;;;;5055917;28;20027;-78
2023/05/29 01:29:35;;;;;;;8.33;3.10;;;15.20;99.90;;;;;;5054536;28;20033;-78
2023/05/29 01:32:01;;;;;;;7.93;2.97;;;15.20;99.90;;;;;;5054726;28;20024;-78
2023/05/29 01:34:31;;;;;;;6.90;2.80;;;15.00;99.90;;;;;;5072575;28;20028;-77
2023/05/29 01:36:57;;;;;;;6.67;3.10;;;14.90;99.90;;;;;;5055346;28;20055;-77
2023/05/29 01:39:23;;;;;;;5.97;3.07;;;15.00;99.90;;;;;;5055288;28;20036;-78
2023/05/29 01:41:50;;;;;;;6.13;2.50;;;14.90;99.90;;;;;;5054920;28;20033;-78
2023/05/29 01:44:17;;;;;;;7.93;2.73;;;15.20;99.90;;;;;;5073162;28;20091;-77
2023/05/29 01:46:48;;;;;;;6.20;3.10;;;14.90;99.90;;;;;;5054313;28;20015;-78
2023/05/29 01:49:18;;;;;;;5.73;2.60;;;14.70;99.90;;;;;;5055124;28;20035;-78
2023/05/29 01:51:49;;;;;;;7.53;3.00;;;14.80;99.90;;;;;;5055325;28;20045;-77
2023/05/29 01:54:18;;;;;;;6.20;2.33;;;14.70;99.90;;;;;;5072031;28;20025;-78
2023/05/29 01:56:51;;;;;;;14.90;2.60;;;14.70;99.90;;;;;;5055260;28;20023;-77
2023/05/29 01:59:22;;;;;;;6.40;2.83;;;14.60;99.90;;;;;;5072501;28;20035;-77
2023/05/29 02:01:48;;;;;;;5.45;2.45;;;14.50;99.90;;;;;;5055556;28;20021;-77
2023/05/29 02:04:14;;;;;;;4.87;2.60;;;14.60;99.90;;;;;;5054587;28;20043;-77
2023/05/29 02:06:42;;;;;;;7.27;2.90;;;14.80;99.90;;;;;;5055074;28;20017;-77
2023/05/29 02:09:10;;;;;;;5.73;2.60;;;14.30;99.90;;;;;;5053917;28;20096;-77
2023/05/29 02:11:44;;;;;;;6.30;3.07;;;14.70;99.90;;;;;;5054966;28;20025;-78
2023/05/29 02:14:13;;;;;;;5.10;2.87;;;14.70;99.90;;;;;;5054369;28;20083;-77
2023/05/29 02:16:43;;;;;;;6.50;2.90;;;14.40;99.90;;;;;;5072931;28;20055;-77
2023/05/29 02:19:10;;;;;;;8.63;3.13;;;14.30;99.90;;;;;;5072845;28;20036;-77
2023/05/29 02:21:51;;;;;;;5.57;2.73;;;14.30;99.90;;;;;;5054594;28;20029;-78
2023/05/29 02:24:19;;;;;;;5.20;2.80;;;14.20;99.90;;;;;;5054832;28;20045;-77
2023/05/29 02:26:48;;;;;;;4.57;2.50;;;14.20;99.90;;;;;;5055101;28;20016;-77
2023/05/29 02:29:13;;;;;;;7.90;2.97;;;14.10;99.90;;;;;;5054441;28;20025;-78
2023/05/29 02:31:44;;;;;;;10.60;3.40;;;14.00;99.90;;;;;;5054863;28;20029;-78
2023/05/29 02:34:09;;;;;;;6.13;3.07;;;13.70;99.90;;;;;;5054770;28;20048;-77
2023/05/29 02:36:37;;;;;;;9.77;3.40;;;14.00;99.90;;;;;;5054050;28;20025;-76
2023/05/29 02:39:03;;;;;;;6.13;3.33;;;13.90;99.90;;;;;;5054870;28;20024;-77
2023/05/29 02:41:29;;;;;;;6.77;3.30;;;13.80;99.90;;;;;;5054914;28;20040;-78
2023/05/29 02:43:55;;;;;;;10.33;3.30;;;13.70;99.90;;;;;;5054879;28;20013;-77
2023/05/29 02:46:23;;;;;;;5.47;2.97;;;13.70;99.90;;;;;;5072790;28;20037;-78
2023/05/29 02:48:51;;;;;;;9.83;3.23;;;13.70;99.90;;;;;;5054246;28;20021;-77
2023/05/29 02:51:17;;;;;;;6.83;3.00;;;13.60;99.90;;;;;;5053325;28;20033;-77
2023/05/29 02:53:42;;;;;;;6.50;3.13;;;13.70;99.90;;;;;;5054381;28;20023;-78
2023/05/29 02:56:13;;;;;;;7.50;3.63;;;13.70;99.90;;;;;;5072368;28;20032;-78
2023/05/29 02:58:47;;;;;;;7.27;3.60;;;13.60;99.90;;;;;;5053852;28;20100;-77
2023/05/29 03:01:12;;;;;;;6.67;3.13;;;13.60;99.90;;;;;;5053686;28;20037;-78
2023/05/29 03:03:38;;;;;;;7.50;3.60;;;13.50;99.90;;;;;;5054804;28;20033;-78
2023/05/29 03:06:04;;;;;;;6.40;3.80;;;13.50;99.90;;;;;;5054216;28;20013;-78
2023/05/29 03:08:31;;;;;;;7.40;3.30;;;13.40;99.90;;;;;;5054371;28;20037;-78
2023/05/29 03:10:57;;;;;;;6.60;3.37;;;13.40;99.90;;;;;;5054600;28;20102;-77
2023/05/29 03:13:25;;;;;;;8.60;3.40;;;13.40;99.90;;;;;;5054421;28;20029;-78
2023/05/29 03:15:51;;;;;;;8.50;3.20;;;13.30;99.90;;;;;;5054288;28;20013;-77
2023/05/29 03:18:19;;;;;;;14.27;3.07;;;13.30;99.90;;;;;;5054644;28;20060;-77
2023/05/29 03:20:47;;;;;;;9.23;2.93;;;13.30;99.90;;;;;;5072071;28;20147;-77
2023/05/29 03:23:13;;;;;;;6.97;3.00;;;13.40;99.90;;;;;;5054071;28;20029;-77
2023/05/29 03:25:39;;;;;;;11.93;4.27;;;13.10;99.90;;;;;;5053548;28;20028;-78
2023/05/29 03:28:04;;;;;;;10.63;3.03;;;13.10;99.90;;;;;;5058413;28;20055;-77
2023/05/29 03:30:30;;;;;;;7.23;3.10;;;13.00;99.90;;;;;;5059214;28;20218;-77
2023/05/29 03:32:56;;;;;;;11.90;3.20;;;13.00;99.90;;;;;;5058193;28;20041;-78
2023/05/29 03:35:21;;;;;;;11.90;3.90;;;13.00;99.90;;;;;;5076009;28;20024;-78
2023/05/29 03:37:47;;;;;;;12.63;3.50;;;12.90;99.90;;;;;;5057040;28;20089;-78
2023/05/29 03:40:13;;;;;;;9.67;3.00;;;12.90;99.90;;;;;;5074645;28;20044;-77
2023/05/29 03:42:51;;;;;;;10.17;3.57;;;12.90;99.90;;;;;;5057882;28;20060;-78
2023/05/29 03:45:17;;;;;;;9.80;3.10;;;12.80;99.90;;;;;;5058045;28;20021;-77
2023/05/29 03:47:43;;;;;;;10.17;3.07;;;12.80;99.90;;;;;;5075395;28;20020;-78
2023/05/29 03:50:11;;;;;;;10.63;3.57;;;12.80;99.90;;;;;;5075473;28;20059;-77
2023/05/29 03:52:36;;;;;;;10.37;3.73;;;12.70;99.90;;;;;;5074917;28;20024;-78
2023/05/29 03:55:03;;;;;;;12.77;3.33;;;12.50;99.90;;;;;;5057390;28;20033;-78
2023/05/29 03:57:31;;;;;;;13.47;3.30;;;12.70;99.90;;;;;;5075762;28;20015;-77
2023/05/29 03:59:56;;;;;;;11.63;3.77;;;12.70;99.90;;;;;;5057729;28;20029;-78
2023/05/29 04:02:22;;;;;;;10.90;3.40;;;12.70;99.90;;;;;;5057159;28;20036;-78
2023/05/29 04:04:48;;;;;;;13.33;3.20;;;12.70;99.90;;;;;;5057385;28;20079;-78
2023/05/29 04:07:14;;;;;;;13.50;4.00;;;12.70;99.90;;;;;;5057489;28;20029;-78
2023/05/29 04:09:40;;;;;;;10.70;3.50;;;12.60;99.90;;;;;;5057772;28;20060;-78
2023/05/29 04:12:09;;;;;;;16.27;4.50;;;12.60;99.90;;;;;;5075061;28;20028;-77
2023/05/29 04:14:34;;;;;;;16.40;3.77;;;12.60;99.90;;;;;;5057678;28;20065;-77
2023/05/29 04:17:00;;;;;;;10.77;3.50;;;12.60;99.90;;;;;;5057518;28;20059;-78
2023/05/29 04:19:28;;;;;;;8.33;2.90;;;12.60;99.90;;;;;;5056870;28;20125;-77
2023/05/29 04:21:57;;;;;;;9.20;3.67;;;12.60;99.90;;;;;;5057248;28;20101;-77
2023/05/29 04:24:24;;;;;;;11.10;3.00;;;12.50;99.90;;;;;;5057386;28;20033;-77
2023/05/29 04:26:52;;;;;;;6.37;3.03;;;12.50;99.90;;;;;;5075148;28;20089;-78
2023/05/29 04:29:19;;;;;;;9.57;3.50;;;12.50;99.90;;;;;;5057416;28;20024;-77
2023/05/29 04:31:47;;;;;;;14.40;3.20;;;12.50;99.90;;;;;;5057772;28;20089;-78
2023/05/29 04:34:17;;;;;;;12.77;3.17;;;12.60;99.90;;;;;;5057843;28;20127;-77
2023/05/29 04:36:45;;;;;;;14.57;3.77;;;12.50;99.90;;;;;;5056606;28;20028;-78
2023/05/29 04:39:11;;;;;;;9.83;2.87;;;12.50;99.90;;;;;;5056886;28;20147;-78
2023/05/29 04:41:40;;;;;;;11.93;3.50;;;12.50;99.90;;;;;;5057545;28;20040;-77
2023/05/29 04:44:11;;;;;;;11.07;4.37;;;12.60;99.90;;;;;;5057149;28;20092;-77
2023/05/29 04:46:38;;;;;;;9.67;3.13;;;12.50;99.90;;;;;;5056555;28;20031;-77
2023/05/29 04:49:04;;;;;;;16.87;4.10;;;12.50;99.90;;;;;;5056114;28;20032;-79
2023/05/29 04:51:31;;;;;;;12.53;3.57;;;12.50;99.90;;;;;;5057196;28;20096;-77
2023/05/29 04:53:59;;;;;;;16.77;3.83;;;12.60;99.90;;;;;;5056479;28;20025;-78
2023/05/29 04:56:26;;;;;;;12.00;3.50;;;12.60;99.90;;;;;;5074841;28;20017;-77
2023/05/29 04:59:04;;;;;;;;;;;;;;;;;;;;;
2023/05/29 05:01:43;;;;;;;;;;;;;;;;;;;;;
2023/05/29 05:04:18;;;;;;;11.57;3.37;;;12.50;99.90;;;;;;5075458;28;20040;-78
2023/05/29 05:06:46;;;;;;;11.37;3.40;;;12.50;99.90;;;;;;5056735;28;20025;-77
2023/05/29 05:09:14;;;;;;;16.53;3.87;;;12.50;99.90;;;;;;5056888;28;20031;-77
2023/05/29 05:11:45;;;;;;;13.37;3.57;;;12.50;99.90;;;;;;5056403;28;20032;-77
2023/05/29 05:14:10;;;;;;;13.93;3.40;;;12.70;99.90;;;;;;5056250;28;20017;-78
2023/05/29 05:16:36;;;;;;;14.67;3.40;;;12.60;99.90;;;;;;5074248;28;20028;-76
2023/05/29 05:19:05;;;;;;;16.57;4.40;;;12.60;99.90;;;;;;5056199;28;20308;-77
2023/05/29 05:21:33;;;;;;;13.53;4.40;;;12.60;99.90;;;;;;5056498;28;20021;-77
2023/05/29 05:24:00;;;;;;;11.80;3.33;;;12.70;99.90;;;;;;5056188;28;20032;-77
2023/05/29 05:26:31;;;;;;;17.87;3.37;;;12.60;99.90;;;;;;5055627;28;20010;-76
2023/05/29 05:28:58;;;;;;;16.10;3.37;;;12.80;99.90;;;;;;5056195;28;20210;-77
2023/05/29 05:31:27;;;;;;;14.13;3.70;;;12.70;99.90;;;;;;5056233;28;20021;-77
2023/05/29 05:33:53;;;;;;;12.23;3.93;;;12.70;99.90;;;;;;5055818;28;20032;-77
2023/05/29 05:36:18;;;;;;;16.23;3.70;;;12.70;99.90;;;;;;5056365;28;20036;-75
2023/05/29 05:38:46;;;;;;;12.93;3.33;;;12.70;99.90;;;;;;5055699;28;20432;-76
2023/05/29 05:41:12;;;;;;;13.67;4.00;;;12.70;99.90;;;;;;5073854;28;20055;-76
2023/05/29 05:43:40;;;;;;;14.17;4.07;;;12.70;99.90;;;;;;5074039;28;20013;-76
2023/05/29 05:46:06;;;;;;;15.13;3.53;;;12.70;99.90;;;;;;5056567;28;20013;-76
2023/05/29 05:48:35;;;;;;;15.67;3.87;;;12.90;99.90;;;;;;5054884;28;20093;-76
2023/05/29 05:51:00;;;;;;;16.60;4.07;;;13.00;99.90;;;;;;5054883;28;20171;-76
2023/05/29 05:53:28;;;;;;;10.77;3.60;;;13.00;99.90;;;;;;5055892;28;20021;-76
2023/05/29 05:55:57;;;;;;;15.90;3.57;;;12.90;99.90;;;;;;5072876;28;20032;-75
2023/05/29 05:58:22;;;;;;;17.13;4.60;;;12.90;99.90;;;;;;5073162;28;20049;-76
2023/05/29 06:00:48;;;;;;;19.07;3.90;;;13.00;99.90;;;;;;5055742;28;20038;-76
2023/05/29 06:03:14;;;;;;;15.30;4.60;;;12.80;99.90;;;;;;5054765;28;20028;-76
2023/05/29 06:05:42;;;;;;;16.50;3.63;;;13.10;99.90;;;;;;5072756;28;20025;-77
2023/05/29 06:08:10;;;;;;;14.23;4.67;;;13.10;99.90;;;;;;5055327;28;20021;-76
2023/05/29 06:10:36;;;;;;;13.90;4.17;;;13.10;99.90;;;;;;5054525;28;20059;-76
2023/05/29 06:13:03;;;;;;;16.80;4.37;;;13.10;99.90;;;;;;5056140;28;20052;-76
2023/05/29 06:15:29;;;;;;;12.10;3.53;;;13.10;99.90;;;;;;5055366;28;20025;-78
2023/05/29 06:17:55;;;;;;;18.17;3.67;;;13.20;99.90;;;;;;5072202;28;20036;-76
2023/05/29 06:20:21;;;;;;;14.37;3.13;;;13.20;99.90;;;;;;5072234;28;20017;-78
2023/05/29 06:22:53;;;;;;;16.80;4.43;;;13.20;99.90;;;;;;5054790;28;20040;-76
2023/05/29 06:25:19;;;;;;;12.23;3.63;;;13.20;99.90;;;;;;5054683;28;20033;-76
2023/05/29 06:27:47;;;;;;;13.60;3.50;;;13.30;99.90;;;;;;5072049;28;20013;-77
2023/05/29 06:30:15;;;;;;;22.77;4.13;;;13.30;99.90;;;;;;5055663;28;20016;-77
2023/05/29 06:32:40;;;;;;;14.70;3.63;;;13.40;99.90;;;;;;5071801;28;20173;-77
2023/05/29 06:35:06;;;;;;;14.73;3.77;;;13.30;99.90;;;;;;5072389;28;20020;-76
2023/05/29 06:37:32;;;;;;;14.90;3.60;;;13.50;99.90;;;;;;5054746;28;20097;-76
2023/05/29 06:40:00;;;;;;;17.83;3.40;;;13.50;99.90;;;;;;5054794;28;20024;-77
2023/05/29 06:42:26;;;;;;;12.63;3.27;;;13.60;99.90;;;;;;5053974;28;20028;-77
2023/05/29 06:44:52;;;;;;;16.53;3.57;;;13.60;99.90;;;;;;5071871;28;20115;-77
2023/05/29 06:47:28;;;;;;;16.60;4.07;;;13.60;99.90;;;;;;5071851;28;20025;-76
2023/05/29 06:49:53;;;;;;;12.53;3.33;;;13.70;99.90;;;;;;5054145;28;20029;-75
2023/05/29 06:52:22;;;;;;;12.87;3.30;;;13.60;99.90;;;;;;5072128;28;20048;-76
2023/05/29 06:54:47;;;;;;;19.30;3.67;;;13.60;99.90;;;;;;5053489;28;20096;-76
2023/05/29 06:57:21;;;;;;;14.90;3.67;;;13.60;99.90;;;;;;5071756;28;20013;-75
2023/05/29 06:59:46;;;;;;;14.57;4.03;;;13.70;99.90;;;;;;5053578;28;20041;-76
2023/05/29 07:02:15;;;;;;;13.77;3.67;;;13.80;99.90;;;;;;5053800;28;20036;-77
2023/05/29 07:04:41;;;;;;;17.70;4.33;;;13.70;99.90;;;;;;5053420;28;20009;-78
2023/05/29 07:07:06;;;;;;;13.03;3.73;;;13.80;99.90;;;;;;5054086;28;20025;-76
2023/05/29 07:09:35;;;;;;;14.07;3.50;;;14.10;99.90;;;;;;5054045;28;20028;-78
2023/05/29 07:12:07;;;;;;;14.40;3.63;;;13.80;99.90;;;;;;5052667;28;20183;-78
2023/05/29 07:14:33;;;;;;;14.10;3.77;;;13.90;99.90;;;;;;5053658;28;20055;-76
2023/05/29 07:17:00;;;;;;;10.63;3.10;;;13.90;99.90;;;;;;5056002;28;20271;-76
2023/05/29 07:19:29;;;;;;;12.07;3.47;;;13.90;99.90;;;;;;5055244;28;20029;-76
2023/05/29 07:22:03;;;;;;;14.53;3.77;;;14.10;99.90;;;;;;5055206;28;20087;-76
2023/05/29 07:24:29;;;;;;;13.03;3.37;;;14.10;99.90;;;;;;5054426;28;20039;-76
2023/05/29 07:26:55;;;;;;;14.37;3.43;;;14.20;99.90;;;;;;5054198;28;20024;-76
2023/05/29 07:29:22;;;;;;;12.83;3.87;;;14.30;99.90;;;;;;5072112;28;20026;-75
2023/05/29 07:31:49;;;;;;;9.57;3.07;;;14.10;99.90;;;;;;5054563;28;20005;-76
2023/05/29 07:34:14;;;;;;;11.87;3.77;;;14.20;99.90;;;;;;5055165;28;20020;-77
2023/05/29 07:37:03;;;;;;;13.20;3.57;;;14.40;99.90;;;;;;5054685;28;20021;-76
2023/05/29 07:39:32;;;;;;;14.27;4.07;;;14.50;99.90;;;;;;5050824;28;20029;-77
2023/05/29 07:42:01;;;;;;;11.60;3.10;;;14.50;99.90;;;;;;5071404;28;20202;-76
2023/05/29 07:44:27;;;;;;;16.97;3.60;;;14.60;99.90;;;;;;5054185;28;20025;-76
2023/05/29 07:46:55;;;;;;;14.17;3.53;;;14.60;99.90;;;;;;5072233;28;20036;-78
2023/05/29 07:49:21;;;;;;;12.17;3.27;;;14.60;99.90;;;;;;5055023;28;20021;-78
2023/05/29 07:51:47;;;;;;;17.90;4.10;;;14.60;99.90;;;;;;5052112;28;20024;-77
2023/05/29 07:54:12;;;;;;;11.17;3.37;;;14.50;99.90;;;;;;5053501;28;20017;-77
2023/05/29 07:56:40;;;;;;;14.47;3.50;;;14.60;99.90;;;;;;5070812;28;20067;-78
2023/05/29 07:59:06;;;;;;;11.70;3.00;;;14.70;99.90;;;;;;5069551;28;20054;-78
2023/05/29 08:01:33;;;;;;;11.63;3.10;;;14.60;99.90;;;;;;5069905;28;20032;-77
2023/05/29 08:04:01;;;;;;;15.83;3.30;;;14.70;99.90;;;;;;5069455;28;20013;-77
2023/05/29 08:06:27;;;;;;;8.83;3.50;;;14.80;99.90;;;;;;5051553;28;20021;-78
2023/05/29 08:08:52;;;;;;;14.43;4.03;;;14.90;99.90;;;;;;5070417;28;20021;-78
2023/05/29 08:11:19;;;;;;;15.93;3.53;;;14.90;99.90;;;;;;5051273;28;20033;-78
2023/05/29 08:13:50;;;;;;;9.53;3.10;;;14.90;99.90;;;;;;5054890;28;20013;-75
2023/05/29 08:16:22;;;;;;;11.53;3.73;;;15.00;99.90;;;;;;5055616;28;20047;-77
2023/05/29 08:18:47;;;;;;;9.65;3.38;;;15.10;99.90;;;;;;5055861;28;20033;-75
2023/05/29 08:21:13;;;;;;;17.23;3.47;;;15.10;99.90;;;;;;5055458;28;20100;-77
2023/05/29 08:23:42;;;;;;;14.47;3.80;;;15.00;99.90;;;;;;5054883;28;20148;-76
2023/05/29 08:26:13;;;;;;;18.03;4.57;;;15.10;99.90;;;;;;5055961;28;20059;-75
2023/05/29 08:28:41;;;;;;;14.43;3.30;;;15.10;99.90;;;;;;5055224;28;20271;-75
2023/05/29 08:31:14;;;;;;;14.50;3.57;;;15.20;99.90;;;;;;5073400;28;20192;-75
2023/05/29 08:33:50;;;;;;;;;;;;;;;;;;;;;
2023/05/29 08:36:21;;;;;;;11.43;3.33;;;15.20;99.90;;;;;;5073035;28;20068;-75
2023/05/29 08:38:50;;;;;;;12.07;3.00;;;15.30;99.90;;;;;;5055843;28;20190;-79
2023/05/29 08:41:25;;;;;;;12.60;3.20;;;15.30;99.90;;;;;;5055659;28;20013;-77
2023/05/29 08:43:52;;;;;;;16.17;3.80;;;15.50;99.90;;;;;;5055010;28;20037;-76
2023/05/29 08:46:19;;;;;;;16.20;4.03;;;15.40;99.90;;;;;;5055533;28;20032;-76
2023/05/29 08:48:49;;;;;;;19.00;4.07;;;15.40;99.90;;;;;;5055413;28;20029;-76
2023/05/29 08:51:22;;;;;;;14.13;3.87;;;15.40;99.90;;;;;;5072497;28;20024;-79
2023/05/29 08:53:48;;;;;;;10.90;3.13;;;15.40;99.90;;;;;;5054479;28;20062;-76
2023/05/29 08:56:14;;;;;;;11.40;3.30;;;15.50;99.90;;;;;;5054313;28;20025;-76
2023/05/29 08:58:42;;;;;;;11.63;3.83;;;15.60;99.90;;;;;;5054807;28;20048;-76
2023/05/29 09:01:13;;;;;;;17.92;3.75;;;15.60;99.90;;;;;;5053464;28;20155;-76
2023/05/29 09:03:45;;;;;;;16.30;3.83;;;15.80;99.90;;;;;;5054636;28;20036;-76
2023/05/29 09:06:11;;;;;;;11.13;3.92;;;15.80;99.90;;;;;;5053763;28;21371;-77
2023/05/29 09:08:37;;;;;;;13.73;3.78;;;15.90;99.90;;;;;;5054181;28;20032;-76
2023/05/29 09:11:03;;;;;;;11.52;3.35;;;15.80;99.90;;;;;;5053841;28;20029;-76
2023/05/29 09:13:28;;;;;;;13.60;3.42;;;15.90;99.90;;;;;;5054251;28;20021;-76
2023/05/29 09:16:02;;;;;;;17.35;4.82;;;16.00;99.90;;;;;;5056082;28;20017;-76
2023/05/29 09:18:32;;;;;;;18.30;3.78;;;16.10;99.90;;;;;;5055018;28;20036;-76
2023/05/29 09:21:06;;;;;;;13.07;4.25;;;16.10;99.90;;;;;;5073171;28;20084;-76
2023/05/29 09:23:31;;;;;;;18.20;4.50;;;16.20;99.90;;;;;;5072091;28;20029;-76
2023/05/29 09:26:00;;;;;;;13.15;3.75;;;16.30;99.90;;;;;;5057126;28;20095;-76
2023/05/29 09:28:28;;;;;;;16.83;4.35;;;16.40;99.90;;;;;;5074289;28;20088;-76
2023/05/29 09:30:53;;;;;;;14.40;3.65;;;16.40;99.90;;;;;;5054971;28;20021;-76
2023/05/29 09:33:19;;;;;;;13.93;3.65;;;16.40;99.90;;;;;;5053132;28;20041;-76
2023/05/29 09:35:49;;;;;;;16.73;4.15;;;16.50;99.90;;;;;;5054082;28;20056;-76
2023/05/29 09:38:17;;;;;;;9.15;2.97;;;16.60;99.90;;;;;;5053707;28;20089;-76
2023/05/29 09:40:46;;;;;;;16.25;4.10;;;16.70;99.90;;;;;;5055495;28;20017;-76
2023/05/29 09:43:12;;;;;;;13.90;3.60;;;16.80;99.90;;;;;;5075007;28;20088;-76
2023/05/29 09:45:44;;;;;;;10.02;3.40;;;16.80;99.90;;;;;;5056675;28;20024;-77
2023/05/29 09:48:17;;;;;;;14.73;3.50;;;16.90;99.90;;;;;;5056972;28;20028;-77
2023/05/29 09:50:47;;;;;;;14.05;3.58;;;16.90;99.90;;;;;;5057095;28;20025;-76
2023/05/29 09:53:24;;;;;;;11.23;3.92;;;17.00;99.90;;;;;;5056777;28;20118;-76
2023/05/29 09:55:57;;;;;;;17.88;4.90;;;16.90;99.90;;;;;;5056312;28;20039;-75
2023/05/29 09:58:25;;;;;;;10.82;3.88;;;17.00;99.90;;;;;;5073951;28;20029;-76
2023/05/29 10:00:53;;;;;;;9.82;3.45;;;17.00;99.90;;;;;;5056291;28;20036;-76
2023/05/29 10:03:22;;;;;;;16.02;4.20;;;17.00;99.90;;;;;;5056258;28;20016;-76
2023/05/29 10:05:50;;;;;;;15.85;4.00;;;17.20;99.90;;;;;;5056469;28;20032;-77
2023/05/29 10:08:20;;;;;;;15.68;3.63;;;17.20;99.90;;;;;;5056866;28;20029;-76
2023/05/29 10:11:19;;;;;;;13.32;4.43;;;17.20;99.90;;;;;;5072733;28;20040;-76
2023/05/29 10:13:51;;;;;;;12.77;3.55;;;17.30;99.90;;;;;;5057833;28;20045;-77
2023/05/29 10:16:21;;;;;;;16.63;4.13;;;17.30;99.90;;;;;;5054994;28;20036;-76
2023/05/29 10:18:54;;;;;;;16.35;4.38;;;17.30;99.90;;;;;;5054618;28;20060;-76
2023/05/29 10:21:40;;;;;;;14.77;3.90;;;17.40;99.90;;;;;;5099123;27;20409;-75
2023/05/29 10:24:07;;;;;;;16.10;4.40;;;17.40;99.90;;;;;;5072069;28;20025;-74
2023/05/29 10:26:37;;;;;;;14.73;4.47;;;17.50;99.90;;;;;;5069334;28;20036;-77
2023/05/29 10:29:18;;;;;;;17.13;4.53;;;17.60;99.90;;;;;;5084365;28;20076;-76
2023/05/29 10:31:54;;;;;;;13.25;3.90;;;17.60;99.90;;;;;;5070988;28;20017;-78
2023/05/29 10:34:50;;;;;;;14.05;4.30;;;17.50;99.90;;;;;;5079777;28;20056;-76
2023/05/29 10:37:31;;;;;;;11.38;3.55;;;17.50;99.90;;;;;;5072550;28;20100;-76
2023/05/29 10:40:12;;;;;;;16.05;4.22;;;17.50;99.90;;;;;;5086379;28;20102;-78
2023/05/29 10:42:48;;;;;;;14.40;4.57;;;17.50;99.90;;;;;;5087787;28;20027;-78
2023/05/29 10:45:32;;;;;;;11.07;3.97;;;17.50;99.90;;;;;;5070772;28;20018;-76
2023/05/29 10:48:10;;;;;;;14.68;4.10;;;17.60;99.90;;;;;;5087696;28;20099;-76
2023/05/29 10:50:43;;;;;;;13.00;3.63;;;17.70;99.90;;;;;;5074221;28;20112;-76
2023/05/29 10:53:23;;;;;;;13.20;4.45;;;17.70;99.90;;;;;;5065473;28;20033;-76
2023/05/29 10:55:50;;;;;;;21.30;5.00;;;17.80;99.90;;;;;;5069042;28;20036;-75
2023/05/29 10:58:19;;;;;;;16.50;5.00;;;17.80;99.90;;;;;;5069026;28;20029;-78
2023/05/29 11:00:46;;;;;;;15.98;4.80;;;17.90;99.90;;;;;;5082672;28;20348;-76
2023/05/29 11:03:15;;;;;;;13.63;4.00;;;17.90;99.90;;;;;;5070927;28;20024;-76
2023/05/29 11:06:07;;;;;;;15.10;4.53;;;18.00;99.90;;;;;;5076204;28;20020;-76
2023/05/29 11:08:47;;;;;;;15.30;4.55;;;18.10;99.90;;;;;;5064104;28;20047;-77
2023/05/29 11:11:36;;;;;;;10.73;3.80;;;18.20;99.90;;;;;;5067708;28;20067;-76
2023/05/29 11:14:04;;;;;;;16.00;4.28;;;18.20;99.90;;;;;;5082404;28;20058;-76
2023/05/29 11:16:30;;;;;;;14.90;4.07;;;18.20;99.90;;;;;;5083986;28;20024;-80
2023/05/29 11:18:57;;;;;;;14.80;4.25;;;18.30;99.90;;;;;;5063973;28;20222;-77
2023/05/29 11:21:54;;;;;;;15.70;4.35;;;18.40;99.90;;;;;;5061764;28;20055;-75
2023/05/29 11:24:24;;;;;;;20.55;5.18;;;18.50;99.90;;;;;;5078976;28;21168;-76
2023/05/29 11:26:56;;;;;;;12.65;3.65;;;18.50;99.90;;;;;;5076376;28;20075;-77
2023/05/29 11:29:31;;;;;;;13.98;4.18;;;18.60;99.90;;;;;;5080335;28;20024;-76
2023/05/29 11:32:12;;;;;;;14.02;4.03;;;18.60;99.90;;;;;;5061002;28;20029;-75
2023/05/29 11:34:41;;;;;;;11.60;3.70;;;18.60;99.90;;;;;;5067124;28;20049;-76
2023/05/29 11:37:06;;;;;;;10.70;3.88;;;18.70;99.90;;;;;;5065182;28;20036;-76
2023/05/29 11:39:36;;;;;;;17.58;4.15;;;18.70;99.90;;;;;;5049259;28;20017;-75
2023/05/29 11:42:02;;;;;;;15.38;4.65;;;18.70;99.90;;;;;;5055807;28;20024;-76
2023/05/29 11:44:28;;;;;;;18.95;3.90;;;18.80;99.90;;;;;;5066052;28;20045;-76
2023/05/29 11:47:12;;;;;;;17.92;4.78;;;18.80;99.90;;;;;;5056630;28;20028;-75
2023/05/29 11:49:38;;;;;;;18.80;4.00;;;19.00;99.90;;;;;;5065164;28;20025;-76
2023/05/29 11:52:17;;;;;;;15.25;4.18;;;19.30;99.90;;;;;;5066839;28;20098;-75
2023/05/29 11:54:50;;;;;;;11.35;3.70;;;19.40;99.90;;;;;;5056776;28;20027;-75
2023/05/29 11:57:20;;;;;;;15.88;4.80;;;19.40;99.90;;;;;;5066630;28;20044;-75
2023/05/29 11:59:46;;;;;;;14.43;3.47;;;19.40;99.90;;;;;;5048503;28;20036;-75
2023/05/29 12:02:12;;;;;;;14.90;3.63;;;19.50;99.90;;;;;;5050839;28;20092;-75
2023/05/29 12:04:37;;;;;;;11.90;4.07;;;19.60;99.90;;;;;;5066651;28;20093;-76
2023/05/29 12:07:19;;;;;;;11.63;3.30;;;19.60;99.90;;;;;;5048866;28;20724;-77
2023/05/29 12:09:51;;;;;;;18.23;4.57;;;19.60;99.90;;;;;;5050394;28;20097;-76
2023/05/29 12:12:17;;;;;;;11.80;3.42;;;19.70;99.90;;;;;;5066397;28;20038;-76
2023/05/29 12:14:43;;;;;;;10.45;3.17;;;19.70;99.90;;;;;;5064509;28;20044;-75
2023/05/29 12:17:09;;;;;;;12.43;3.58;;;19.70;99.90;;;;;;5051368;28;20046;-76
2023/05/29 12:19:35;;;;;;;12.45;3.47;;;19.70;99.90;;;;;;5065953;28;20047;-76
2023/05/29 12:22:00;;;;;;;10.75;3.33;;;19.70;99.90;;;;;;5068142;28;20025;-76
2023/05/29 12:24:26;;;;;;;9.32;2.97;;;19.80;99.90;;;;;;5048555;28;20029;-78
2023/05/29 12:26:52;;;;;;;9.90;2.92;;;20.00;99.90;;;;;;5054057;28;20025;-75
2023/05/29 12:29:18;;;;;;;14.82;3.80;;;20.10;99.90;;;;;;5063961;28;20021;-76
2023/05/29 12:31:43;;;;;;;18.98;3.38;;;20.10;99.90;;;;;;5064187;28;20028;-74
2023/05/29 12:34:12;;;;;;;14.57;3.75;;;20.30;99.90;;;;;;5047595;28;20058;-76
2023/05/29 12:36:41;;;;;;;11.55;3.88;;;20.30;99.90;;;;;;5049966;28;20079;-75
2023/05/29 12:39:10;;;;;;;10.55;3.28;;;20.30;99.90;;;;;;5049015;28;20013;-75
2023/05/29 12:41:37;;;;;;;9.30;3.33;;;20.30;99.90;;;;;;5051097;28;20041;-76
2023/05/29 12:44:05;;;;;;;14.43;4.10;;;20.40;99.90;;;;;;5055588;28;20032;-76
2023/05/29 12:46:43;;;;;;;14.77;3.55;;;20.60;99.90;;;;;;5069338;28;20009;-78
2023/05/29 12:49:20;;;;;;;10.55;3.40;;;20.50;99.90;;;;;;5055075;28;20585;-77
2023/05/29 12:51:49;;;;;;;10.82;2.92;;;20.60;99.90;;;;;;5050880;28;20037;-77
2023/05/29 12:54:16;;;;;;;13.07;3.38;;;20.80;99.90;;;;;;5056060;28;20024;-78